createdAt,value
2019-03-15T00:00:20.088Z,16.67
2019-03-15T00:02:46.764Z,16.10
2019-03-15T00:05:13.593Z,24.32
2019-03-15T00:07:41.274Z,16.45
2019-03-15T00:10:29.444Z,27.82
2019-03-15T00:12:56.137Z,13.90
2019-03-15T00:15:22.826Z,25.30
2019-03-15T00:17:49.590Z,12.33
2019-03-15T00:20:16.270Z,18.15
2019-03-15T00:22:43.069Z,14.80
2019-03-15T00:25:09.741Z,27.42
2019-03-15T00:27:36.327Z,23.65
2019-03-15T00:30:04.602Z,16.65
2019-03-15T00:32:31.292Z,12.35
2019-03-15T00:34:57.870Z,13.72
2019-03-15T00:37:24.567Z,22.22
2019-03-15T00:39:51.264Z,28.38
2019-03-15T00:42:17.962Z,25.08
2019-03-15T00:44:44.570Z,19.05
2019-03-15T00:47:11.180Z,24.77
2019-03-15T00:49:37.764Z,22.20
2019-03-15T00:52:04.575Z,29.87
2019-03-15T00:54:31.167Z,23.92
2019-03-15T00:56:58.105Z,24.18
2019-03-15T00:59:24.656Z,25.55
2019-03-15T01:01:51.362Z,25.80
2019-03-15T01:04:18.145Z,25.30
2019-03-15T01:06:44.859Z,23.77
2019-03-15T01:09:11.551Z,19.20
2019-03-15T01:11:38.246Z,22.35
2019-03-15T01:14:05.029Z,28.42
2019-03-15T01:16:31.739Z,18.00
2019-03-15T01:18:58.546Z,22.25
2019-03-15T01:21:25.266Z,23.25
2019-03-15T01:23:51.835Z,18.80
2019-03-15T01:26:18.679Z,25.52
2019-03-15T01:28:45.317Z,20.37
2019-03-15T01:31:11.933Z,25.92
2019-03-15T01:33:38.646Z,20.48
2019-03-15T01:36:05.331Z,24.10
2019-03-15T01:38:32.023Z,18.35
2019-03-15T01:40:58.601Z,22.90
2019-03-15T01:43:26.432Z,21.30
2019-03-15T01:45:53.020Z,28.23
2019-03-15T01:48:19.728Z,16.90
2019-03-15T01:50:46.504Z,28.05
2019-03-15T01:53:13.123Z,21.30
2019-03-15T01:55:40.302Z,22.00
2019-03-15T01:58:07.082Z,24.20
2019-03-15T02:00:33.866Z,19.87
2019-03-15T02:03:02.314Z,23.30
2019-03-15T02:05:29.287Z,23.45
2019-03-15T02:07:56.104Z,38.65
2019-03-15T02:10:22.903Z,19.25
2019-03-15T02:12:49.484Z,20.25
2019-03-15T02:15:16.174Z,31.45
2019-03-15T02:17:42.866Z,17.48
2019-03-15T02:20:09.562Z,25.45
2019-03-15T02:22:36.329Z,24.10
2019-03-15T02:25:03.827Z,27.37
2019-03-15T02:27:30.645Z,29.60
2019-03-15T02:29:57.345Z,17.55
2019-03-15T02:32:24.058Z,27.27
2019-03-15T02:34:50.626Z,23.30
2019-03-15T02:37:17.323Z,23.95
2019-03-15T02:39:43.905Z,25.85
2019-03-15T02:42:10.518Z,33.98
2019-03-15T02:44:37.313Z,19.48
2019-03-15T02:47:04.133Z,17.00
2019-03-15T02:49:31.113Z,24.20
2019-03-15T02:51:57.700Z,23.80
2019-03-15T02:54:24.396Z,28.92
2019-03-15T02:56:51.078Z,22.32
2019-03-15T02:59:17.775Z,19.07
2019-03-15T03:01:44.366Z,21.07
2019-03-15T03:04:11.175Z,26.55
2019-03-15T03:06:37.950Z,27.35
2019-03-15T03:09:05.372Z,29.45
2019-03-15T03:11:32.070Z,29.65
2019-03-15T03:13:58.855Z,21.87
2019-03-15T03:16:25.641Z,23.38
2019-03-15T03:18:52.345Z,20.30
2019-03-15T03:21:19.052Z,16.07
2019-03-15T03:23:46.183Z,24.63
2019-03-15T03:26:13.548Z,32.13
2019-03-15T03:28:40.567Z,14.43
2019-03-15T03:31:07.338Z,23.85
2019-03-15T03:33:34.053Z,16.95
2019-03-15T03:36:01.044Z,23.65
2019-03-15T03:38:27.848Z,24.02
2019-03-15T03:40:56.275Z,17.82
2019-03-15T03:43:23.821Z,15.60
2019-03-15T03:45:50.593Z,21.05
2019-03-15T03:48:17.691Z,18.67
2019-03-15T03:50:44.470Z,33.45
2019-03-15T03:53:11.263Z,21.33
2019-03-15T03:55:37.939Z,27.77
2019-03-15T03:58:04.843Z,18.32
2019-03-15T04:00:31.535Z,24.45
2019-03-15T04:02:58.338Z,25.62
2019-03-15T04:05:25.432Z,21.33
2019-03-15T04:07:52.211Z,21.00
2019-03-15T04:10:19.011Z,22.67
2019-03-15T04:12:46.050Z,20.85
2019-03-15T04:15:12.871Z,20.27
2019-03-15T04:17:39.655Z,23.40
2019-03-15T04:20:06.944Z,29.63
2019-03-15T04:22:33.617Z,21.50
2019-03-15T04:25:00.423Z,21.95
2019-03-15T04:27:27.105Z,20.50
2019-03-15T04:29:53.995Z,18.50
2019-03-15T04:32:21.040Z,17.20
2019-03-15T04:34:47.650Z,21.02
2019-03-15T04:37:14.331Z,20.02
2019-03-15T04:39:41.136Z,19.50
2019-03-15T04:42:08.003Z,19.62
2019-03-15T04:44:34.732Z,16.70
2019-03-15T04:47:01.447Z,22.42
2019-03-15T04:49:28.015Z,18.52
2019-03-15T04:51:54.608Z,20.00
2019-03-15T04:54:21.315Z,22.05
2019-03-15T04:56:48.004Z,24.15
2019-03-15T04:59:14.605Z,22.75
2019-03-15T05:01:41.394Z,16.35
2019-03-15T05:04:08.467Z,21.50
2019-03-15T05:06:35.147Z,21.77
2019-03-15T05:09:02.000Z,19.95
2019-03-15T05:11:28.808Z,23.10
2019-03-15T05:13:58.699Z,26.20
2019-03-15T05:16:24.205Z,18.25
2019-03-15T05:18:50.893Z,14.70
2019-03-15T05:21:37.518Z,19.45
2019-03-15T05:24:04.302Z,15.23
2019-03-15T05:26:31.103Z,20.52
2019-03-15T05:28:57.788Z,21.25
2019-03-15T05:31:24.412Z,17.57
2019-03-15T05:33:50.986Z,23.10
2019-03-15T05:36:17.707Z,20.27
2019-03-15T05:38:44.519Z,19.40
2019-03-15T05:41:11.217Z,25.92
2019-03-15T05:43:37.815Z,23.85
2019-03-15T05:46:04.517Z,23.67
2019-03-15T05:48:31.300Z,22.87
2019-03-15T05:50:58.314Z,20.88
2019-03-15T05:53:24.925Z,20.95
2019-03-15T05:55:51.529Z,18.35
2019-03-15T05:58:21.673Z,19.50
2019-03-15T06:00:46.857Z,22.70
2019-03-15T06:03:15.158Z,19.05
2019-03-15T06:05:41.968Z,13.68
2019-03-15T06:08:09.358Z,26.27
2019-03-15T06:10:36.071Z,17.23
2019-03-15T06:13:02.856Z,24.00
2019-03-15T06:15:29.569Z,16.42
2019-03-15T06:17:56.227Z,17.82
2019-03-15T06:20:23.014Z,21.17
2019-03-15T06:22:49.722Z,15.03
2019-03-15T06:25:16.396Z,24.20
2019-03-15T06:27:43.091Z,22.85
2019-03-15T06:30:09.874Z,16.02
2019-03-15T06:32:36.555Z,18.75
2019-03-15T06:35:04.271Z,18.67
2019-03-15T06:37:30.934Z,21.77
2019-03-15T06:39:57.539Z,18.95
2019-03-15T06:42:24.232Z,20.20
2019-03-15T06:44:57.953Z,18.45
2019-03-15T06:47:19.451Z,19.87
2019-03-15T06:49:46.140Z,16.02
2019-03-15T06:52:14.003Z,18.48
2019-03-15T06:54:40.729Z,17.65
2019-03-15T06:57:07.457Z,23.10
2019-03-15T06:59:34.058Z,23.15
2019-03-15T07:02:00.812Z,20.43
2019-03-15T07:04:27.527Z,25.62
2019-03-15T07:06:54.318Z,23.40
2019-03-15T07:09:21.112Z,25.37
2019-03-15T07:11:47.779Z,28.02
2019-03-15T07:14:14.587Z,28.15
2019-03-15T07:16:41.167Z,23.75
2019-03-15T07:19:07.953Z,31.33
2019-03-15T07:21:36.809Z,34.55
2019-03-15T07:24:03.325Z,26.30
2019-03-15T07:26:30.113Z,24.25
2019-03-15T07:28:56.812Z,28.87
2019-03-15T07:31:23.582Z,31.48
2019-03-15T07:33:50.184Z,20.32
2019-03-15T07:36:16.983Z,30.17
2019-03-15T07:38:43.818Z,22.77
2019-03-15T07:41:10.655Z,24.92
2019-03-15T07:43:37.231Z,23.10
2019-03-15T07:46:04.025Z,28.10
2019-03-15T07:48:30.733Z,27.27
2019-03-15T07:50:57.566Z,25.25
2019-03-15T07:53:24.382Z,28.67
2019-03-15T07:55:51.071Z,26.02
2019-03-15T07:58:17.905Z,23.18
2019-03-15T08:00:44.613Z,26.52
2019-03-15T08:03:11.389Z,31.20
2019-03-15T08:05:38.295Z,29.12
2019-03-15T08:08:05.145Z,30.55
2019-03-15T08:10:31.850Z,22.13
2019-03-15T08:12:58.527Z,27.20
2019-03-15T08:15:25.237Z,34.60
2019-03-15T08:17:52.011Z,25.00
2019-03-15T08:20:18.719Z,25.32
2019-03-15T08:22:45.531Z,26.15
2019-03-15T08:25:12.539Z,28.47
2019-03-15T08:27:39.299Z,24.40
2019-03-15T08:30:08.222Z,23.90
2019-03-15T08:32:34.922Z,30.48
2019-03-15T08:35:03.907Z,18.02
2019-03-15T08:37:30.143Z,30.45
2019-03-15T08:39:56.783Z,28.52
2019-03-15T08:42:23.453Z,33.28
2019-03-15T08:44:50.328Z,31.85
2019-03-15T08:47:17.030Z,26.48
2019-03-15T08:49:43.763Z,26.62
2019-03-15T08:52:10.466Z,28.90
2019-03-15T08:54:37.171Z,35.70
2019-03-15T08:57:03.970Z,29.52
2019-03-15T08:59:30.673Z,41.15
2019-03-15T09:01:57.308Z,30.15
2019-03-15T09:04:23.913Z,27.50
2019-03-15T09:06:50.706Z,22.50
2019-03-15T09:09:17.488Z,34.67
2019-03-15T09:11:44.288Z,29.90
2019-03-15T09:14:10.866Z,30.05
2019-03-15T09:16:37.871Z,23.57
2019-03-15T09:19:04.557Z,29.72
2019-03-15T09:21:31.266Z,30.72
2019-03-15T09:23:57.960Z,39.78
2019-03-15T09:26:24.553Z,29.35
2019-03-15T09:28:51.210Z,25.32
2019-03-15T09:31:17.913Z,24.95
2019-03-15T09:33:44.488Z,23.87
2019-03-15T09:36:11.235Z,22.13
2019-03-15T09:38:38.003Z,19.90
2019-03-15T09:41:04.813Z,25.65
2019-03-15T09:43:31.483Z,29.18
2019-03-15T09:45:58.276Z,28.35
2019-03-15T09:48:25.014Z,22.35
2019-03-15T09:50:52.033Z,23.32
2019-03-15T09:53:18.791Z,22.58
2019-03-15T09:55:45.946Z,17.27
2019-03-15T09:58:12.661Z,21.33
2019-03-15T10:00:39.446Z,29.12
2019-03-15T10:03:06.216Z,22.87
2019-03-15T10:05:33.007Z,20.43
2019-03-15T10:07:59.705Z,23.65
2019-03-15T10:10:26.402Z,23.27
2019-03-15T10:13:05.337Z,17.82
2019-03-15T10:15:21.668Z,23.95
2019-03-15T10:17:48.480Z,18.23
2019-03-15T10:20:17.259Z,15.32
2019-03-15T10:22:44.062Z,20.00
2019-03-15T10:25:10.841Z,18.73
2019-03-15T10:27:37.636Z,18.10
2019-03-15T10:30:05.378Z,17.35
2019-03-15T10:32:32.181Z,13.83
2019-03-15T10:34:58.758Z,17.62
2019-03-15T10:37:25.569Z,19.12
2019-03-15T10:39:52.342Z,17.15
2019-03-15T10:42:19.159Z,21.52
2019-03-15T10:44:47.032Z,19.62
2019-03-15T10:47:13.814Z,21.65
2019-03-15T10:49:40.476Z,15.93
2019-03-15T10:52:07.286Z,13.32
2019-03-15T10:54:34.011Z,15.23
2019-03-15T10:57:00.788Z,15.50
2019-03-15T10:59:28.222Z,11.18
2019-03-15T11:01:55.034Z,7.95
2019-03-15T11:04:21.705Z,12.25
2019-03-15T11:06:48.521Z,8.83
2019-03-15T11:09:15.323Z,12.13
2019-03-15T11:11:42.115Z,7.05
2019-03-15T11:14:08.709Z,9.15
2019-03-15T11:16:35.409Z,8.08
2019-03-15T11:19:02.079Z,8.05
2019-03-15T11:21:28.767Z,7.97
2019-03-15T11:23:55.448Z,9.63
2019-03-15T11:26:22.215Z,9.73
2019-03-15T11:28:48.901Z,8.70
2019-03-15T11:31:15.633Z,9.75
2019-03-15T11:33:42.311Z,12.68
2019-03-15T11:36:09.023Z,8.25
2019-03-15T11:38:35.603Z,8.65
2019-03-15T11:41:02.278Z,10.25
2019-03-15T11:43:28.974Z,10.35
2019-03-15T11:45:55.652Z,12.25
2019-03-15T11:48:22.332Z,9.80
2019-03-15T11:50:49.030Z,11.22
2019-03-15T11:53:18.790Z,11.50
2019-03-15T11:55:44.371Z,13.62
2019-03-15T11:58:11.124Z,16.50
2019-03-15T12:00:37.901Z,10.68
2019-03-15T12:03:05.455Z,10.10
2019-03-15T12:05:32.216Z,9.73
2019-03-15T12:07:58.904Z,9.85
2019-03-15T12:10:25.567Z,7.97
2019-03-15T12:12:52.273Z,7.25
2019-03-15T12:15:18.987Z,6.28
2019-03-15T12:17:45.770Z,5.05
2019-03-15T12:20:12.656Z,4.53
2019-03-15T12:22:39.467Z,5.80
2019-03-15T12:25:06.320Z,7.28
2019-03-15T12:27:33.106Z,5.08
2019-03-15T12:29:59.772Z,6.60
2019-03-15T12:32:26.558Z,6.90
2019-03-15T12:34:53.129Z,6.85
2019-03-15T12:37:19.791Z,7.17
2019-03-15T12:39:46.486Z,7.75
2019-03-15T12:42:13.168Z,7.97
2019-03-15T12:44:39.774Z,7.15
2019-03-15T12:47:06.517Z,12.35
2019-03-15T12:49:33.323Z,6.22
2019-03-15T12:51:59.907Z,6.53
2019-03-15T12:54:26.595Z,10.30
2019-03-15T12:56:54.237Z,10.95
2019-03-15T12:59:21.081Z,7.37
2019-03-15T13:01:47.744Z,5.47
2019-03-15T13:04:14.336Z,7.75
2019-03-15T13:06:41.010Z,11.85
2019-03-15T13:09:07.639Z,8.30
2019-03-15T13:11:34.312Z,4.40
2019-03-15T13:14:01.102Z,7.78
2019-03-15T13:16:27.774Z,8.55
2019-03-15T13:18:54.591Z,7.65
2019-03-15T13:21:21.267Z,6.45
2019-03-15T13:23:47.981Z,9.55
2019-03-15T13:26:14.764Z,9.65
2019-03-15T13:28:41.553Z,11.30
2019-03-15T13:31:08.230Z,6.97
2019-03-15T13:33:34.819Z,9.95
2019-03-15T13:36:01.598Z,7.97
2019-03-15T13:38:28.302Z,7.85
2019-03-15T13:40:54.869Z,7.40
2019-03-15T13:43:21.547Z,16.55
2019-03-15T13:45:48.353Z,17.57
2019-03-15T13:48:15.092Z,14.93
2019-03-15T13:50:41.764Z,11.15
2019-03-15T13:53:08.451Z,15.50
2019-03-15T13:55:35.154Z,16.27
2019-03-15T13:58:01.719Z,11.93
2019-03-15T14:00:28.300Z,12.23
2019-03-15T14:02:55.002Z,7.03
2019-03-15T14:05:21.806Z,12.35
2019-03-15T14:07:48.580Z,6.55
2019-03-15T14:10:15.406Z,4.15
2019-03-15T14:12:42.065Z,6.60
2019-03-15T14:15:09.622Z,4.53
2019-03-15T14:17:36.303Z,10.55
2019-03-15T14:20:04.048Z,7.17
2019-03-15T14:22:30.719Z,6.50
2019-03-15T14:24:57.408Z,6.15
2019-03-15T14:27:36.606Z,7.78
2019-03-15T14:29:52.594Z,10.48
2019-03-15T14:32:19.184Z,6.12
2019-03-15T14:34:45.889Z,8.33
2019-03-15T14:37:12.698Z,7.45
2019-03-15T14:39:40.398Z,10.95
2019-03-15T14:42:07.408Z,7.17
2019-03-15T14:44:34.165Z,6.65
2019-03-15T14:47:00.831Z,6.80
2019-03-15T14:49:27.581Z,4.28
2019-03-15T14:51:54.268Z,4.12
2019-03-15T14:54:20.985Z,8.40
2019-03-15T14:56:47.558Z,10.88
2019-03-15T14:59:14.361Z,5.97
2019-03-15T15:01:41.059Z,5.60
2019-03-15T15:04:07.905Z,6.92
2019-03-15T15:06:34.477Z,5.90
2019-03-15T15:09:01.249Z,2.25
2019-03-15T15:11:27.960Z,3.17
2019-03-15T15:13:54.751Z,4.85
2019-03-15T15:16:21.445Z,5.03
2019-03-15T15:18:48.204Z,3.05
2019-03-15T15:21:14.905Z,4.92
2019-03-15T15:23:41.701Z,6.67
2019-03-15T15:26:08.493Z,8.05
2019-03-15T15:28:35.172Z,2.25
2019-03-15T15:31:01.916Z,5.40
2019-03-15T15:33:28.489Z,5.75
2019-03-15T15:35:55.090Z,6.53
2019-03-15T15:38:21.754Z,6.85
2019-03-15T15:40:48.548Z,10.93
2019-03-15T15:43:15.325Z,8.38
2019-03-15T15:45:42.219Z,8.50
2019-03-15T15:48:08.898Z,7.80
2019-03-15T15:50:35.582Z,8.70
2019-03-15T15:53:02.287Z,5.87
2019-03-15T15:55:29.117Z,7.50
2019-03-15T15:57:55.760Z,7.45
2019-03-15T16:00:22.553Z,11.55
2019-03-15T16:02:49.230Z,6.90
2019-03-15T16:05:15.936Z,7.30
2019-03-15T16:07:42.725Z,9.28
2019-03-15T16:10:10.065Z,11.43
2019-03-15T16:12:36.745Z,13.20
2019-03-15T16:15:04.500Z,7.37
2019-03-15T16:17:31.162Z,12.75
2019-03-15T16:19:57.949Z,7.60
2019-03-15T16:22:24.650Z,11.63
2019-03-15T16:24:51.324Z,10.40
2019-03-15T16:27:18.213Z,6.60
2019-03-15T16:29:44.927Z,12.65
2019-03-15T16:32:11.709Z,12.15
2019-03-15T16:34:38.510Z,13.78
2019-03-15T16:37:05.170Z,9.98
2019-03-15T16:39:31.856Z,8.08
2019-03-15T16:41:58.461Z,12.88
2019-03-15T16:44:25.172Z,14.43
2019-03-15T16:46:51.961Z,10.60
2019-03-15T16:49:18.682Z,12.40
2019-03-15T16:51:45.368Z,8.18
2019-03-15T16:54:12.086Z,9.95
2019-03-15T16:56:38.680Z,10.32
2019-03-15T16:59:05.353Z,7.10
2019-03-15T17:01:32.036Z,13.32
2019-03-15T17:03:58.754Z,11.95
2019-03-15T17:06:25.436Z,12.60
2019-03-15T17:08:52.283Z,12.37
2019-03-15T17:11:19.092Z,14.68
2019-03-15T17:13:45.943Z,18.48
2019-03-15T17:16:12.886Z,6.85
2019-03-15T17:18:39.799Z,11.48
2019-03-15T17:21:06.503Z,18.37
2019-03-15T17:23:33.179Z,18.17
2019-03-15T17:25:59.795Z,14.15
2019-03-15T17:28:26.364Z,8.68
2019-03-15T17:30:53.135Z,13.98
2019-03-15T17:33:19.720Z,17.52
2019-03-15T17:35:46.411Z,14.53
2019-03-15T17:38:13.099Z,13.28
2019-03-15T17:40:39.788Z,18.60
2019-03-15T17:43:07.604Z,18.87
2019-03-15T17:45:34.195Z,15.63
2019-03-15T17:48:00.861Z,23.77
2019-03-15T17:50:27.658Z,12.23
2019-03-15T17:52:54.354Z,15.95
2019-03-15T17:55:21.331Z,14.05
2019-03-15T17:57:48.034Z,11.83
2019-03-15T18:00:22.479Z,12.93
2019-03-15T18:02:49.284Z,16.90
2019-03-15T18:05:16.050Z,11.95
2019-03-15T18:07:42.979Z,13.25
2019-03-15T18:10:09.764Z,20.77
2019-03-15T18:12:36.576Z,9.23
2019-03-15T18:15:03.497Z,13.95
2019-03-15T18:17:30.369Z,10.63
2019-03-15T18:19:57.171Z,13.18
2019-03-15T18:22:23.861Z,9.85
2019-03-15T18:24:50.631Z,7.33
2019-03-15T18:27:17.358Z,8.10
2019-03-15T18:29:44.115Z,4.70
2019-03-15T18:32:10.936Z,7.20
2019-03-15T18:34:37.704Z,7.35
2019-03-15T18:37:04.513Z,6.72
2019-03-15T18:39:31.088Z,9.33
2019-03-15T18:41:57.899Z,3.35
2019-03-15T18:44:24.669Z,6.80
2019-03-15T18:46:51.449Z,7.70
2019-03-15T18:49:18.822Z,4.75
2019-03-15T18:51:45.758Z,10.85
2019-03-15T18:54:17.430Z,7.33
2019-03-15T18:56:41.263Z,5.33
2019-03-15T18:59:08.100Z,6.03
2019-03-15T19:01:35.038Z,12.13
2019-03-15T19:04:01.832Z,11.75
2019-03-15T19:06:28.626Z,6.33
2019-03-15T19:08:55.238Z,4.50
2019-03-15T19:11:21.922Z,7.17
2019-03-15T19:13:48.724Z,5.08
2019-03-15T19:16:19.879Z,9.90
2019-03-15T19:18:44.058Z,5.72
2019-03-15T19:21:10.848Z,8.70
2019-03-15T19:23:37.457Z,8.88
2019-03-15T19:26:04.268Z,8.43
2019-03-15T19:28:30.995Z,8.85
2019-03-15T19:30:57.543Z,7.37
2019-03-15T19:33:24.244Z,8.00
2019-03-15T19:35:50.911Z,8.48
2019-03-15T19:38:17.592Z,6.03
2019-03-15T19:40:44.366Z,8.28
2019-03-15T19:43:10.964Z,5.90
2019-03-15T19:45:37.695Z,5.92
2019-03-15T19:48:04.524Z,7.05
2019-03-15T19:50:31.097Z,9.53
2019-03-15T19:52:57.828Z,5.42
2019-03-15T19:55:24.421Z,6.60
2019-03-15T19:57:51.207Z,6.50
2019-03-15T20:00:17.932Z,5.33
2019-03-15T20:02:44.611Z,7.53
2019-03-15T20:05:11.604Z,8.73
2019-03-15T20:07:38.484Z,7.65
2019-03-15T20:10:05.787Z,8.20
2019-03-15T20:12:52.205Z,6.80
2019-03-15T20:15:19.193Z,10.45
2019-03-15T20:17:46.043Z,6.03
2019-03-15T20:20:12.855Z,8.35
2019-03-15T20:22:39.629Z,8.50
2019-03-15T20:25:08.385Z,9.50
2019-03-15T20:27:35.084Z,13.00
2019-03-15T20:30:01.970Z,8.68
2019-03-15T20:32:28.653Z,7.00
2019-03-15T20:34:55.411Z,8.10
2019-03-15T20:37:21.983Z,7.42
2019-03-15T20:39:49.026Z,11.88
2019-03-15T20:42:15.599Z,7.67
2019-03-15T20:44:42.294Z,10.05
2019-03-15T20:47:08.890Z,14.23
2019-03-15T20:49:36.599Z,6.75
2019-03-15T20:52:03.461Z,6.10
2019-03-15T20:54:31.158Z,11.73
2019-03-15T20:57:17.468Z,9.20
2019-03-15T20:59:44.173Z,8.75
2019-03-15T21:02:10.753Z,10.45
2019-03-15T21:04:37.542Z,6.08
2019-03-15T21:07:04.208Z,12.13
2019-03-15T21:09:30.898Z,9.98
2019-03-15T21:11:57.476Z,15.05
2019-03-15T21:14:24.177Z,10.78
2019-03-15T21:16:50.868Z,10.08
2019-03-15T21:19:17.550Z,10.50
2019-03-15T21:21:44.326Z,7.28
2019-03-15T21:24:10.914Z,10.05
2019-03-15T21:26:37.495Z,9.23
2019-03-15T21:29:04.277Z,12.20
2019-03-15T21:31:30.981Z,14.60
2019-03-15T21:33:57.776Z,13.13
2019-03-15T21:36:24.573Z,9.18
2019-03-15T21:38:51.394Z,8.48
2019-03-15T21:41:18.097Z,15.60
2019-03-15T21:43:44.875Z,9.10
2019-03-15T21:46:11.576Z,12.63
2019-03-15T21:48:38.155Z,13.30
2019-03-15T21:51:04.965Z,9.13
2019-03-15T21:53:31.605Z,13.88
2019-03-15T21:55:58.314Z,17.48
2019-03-15T21:58:25.096Z,7.80
2019-03-15T22:01:01.546Z,9.53
2019-03-15T22:03:20.627Z,14.13
2019-03-15T22:05:47.756Z,11.00
2019-03-15T22:08:14.500Z,12.18
2019-03-15T22:10:41.610Z,12.13
2019-03-15T22:13:08.284Z,10.70
2019-03-15T22:15:34.991Z,11.22
2019-03-15T22:18:01.663Z,7.37
2019-03-15T22:20:28.376Z,11.75
2019-03-15T22:22:54.954Z,14.15
2019-03-15T22:25:21.953Z,10.40
2019-03-15T22:27:50.333Z,8.15
2019-03-15T22:30:17.244Z,13.05
2019-03-15T22:32:43.947Z,7.12
2019-03-15T22:35:11.266Z,12.75
2019-03-15T22:37:38.049Z,13.78
2019-03-15T22:40:05.177Z,11.90
2019-03-15T22:42:31.854Z,12.65
2019-03-15T22:44:58.546Z,10.93
2019-03-15T22:47:25.242Z,7.92
2019-03-15T22:49:52.146Z,13.53
2019-03-15T22:52:19.324Z,9.25
2019-03-15T22:54:46.055Z,12.43
2019-03-15T22:57:12.732Z,7.25
2019-03-15T22:59:39.425Z,16.10
2019-03-15T23:02:06.318Z,7.37
2019-03-15T23:04:32.892Z,5.58
2019-03-15T23:06:59.591Z,11.85
2019-03-15T23:09:26.267Z,8.08
2019-03-15T23:11:52.942Z,10.03
2019-03-15T23:14:19.520Z,12.85
2019-03-15T23:16:46.213Z,11.90
2019-03-15T23:19:12.900Z,13.03
2019-03-15T23:21:39.703Z,16.77
2019-03-15T23:24:06.479Z,8.68
2019-03-15T23:26:33.275Z,13.15
2019-03-15T23:28:59.852Z,11.63
2019-03-15T23:31:26.540Z,6.28
2019-03-15T23:33:53.123Z,7.62
2019-03-15T23:36:19.818Z,13.30
2019-03-15T23:38:46.934Z,10.28
2019-03-15T23:41:13.703Z,9.00
2019-03-15T23:43:40.405Z,7.90
2019-03-15T23:46:07.181Z,13.55
2019-03-15T23:48:33.985Z,11.88
2019-03-15T23:51:00.587Z,7.25
2019-03-15T23:53:27.178Z,5.67
2019-03-15T23:55:55.014Z,16.87
2019-03-15T23:58:21.849Z,11.33
